Time;durP1;ratioP1;P1;durP2;ratioP2;P2;SDS_P1;SDS_P2;PMS_P1;PMS_P2;Temp;Humidity;BMP_temperature;BMP_pressure;BME280_temperature;BME280_humidity;BME280_pressure;Samples;Min_cycle;Max_cycle;Signal;HPM_P1;HPM_P2
2022/04/08 00:01:53;;;;;;;4.40;1.47;;;7.20;99.90;;;;;;5055854;28;20210;-76
2022/04/08 00:04:19;;;;;;;6.90;1.57;;;7.10;1.00;;;;;;5074056;28;20170;-77
2022/04/08 00:06:45;;;;;;;7.27;1.53;;;7.10;1.00;;;;;;5073632;28;20181;-76
2022/04/08 00:09:10;;;;;;;5.57;1.20;;;7.20;1.00;;;;;;5073271;28;20191;-76
2022/04/08 00:11:36;;;;;;;9.80;1.80;;;7.10;1.00;;;;;;5073448;28;20215;-76
2022/04/08 00:14:01;;;;;;;3.50;1.00;;;7.10;1.00;;;;;;5073438;28;20175;-76
2022/04/08 00:16:27;;;;;;;5.27;1.20;;;7.10;1.00;;;;;;5073394;28;20208;-77
2022/04/08 00:18:53;;;;;;;6.23;1.47;;;7.10;1.00;;;;;;5073640;28;20233;-76
2022/04/08 00:21:19;;;;;;;4.43;1.20;;;7.10;1.00;;;;;;5057708;28;20780;-77
2022/04/08 00:23:45;;;;;;;3.90;1.30;;;7.00;1.00;;;;;;5073491;28;20550;-76
2022/04/08 00:26:11;;;;;;;8.23;1.30;;;7.00;1.00;;;;;;5073157;28;20179;-77
2022/04/08 00:28:36;;;;;;;4.57;1.30;;;7.00;1.00;;;;;;5071993;28;20186;-77
2022/04/08 00:31:04;;;;;;;5.17;1.20;;;7.00;1.00;;;;;;5071977;28;20202;-77
2022/04/08 00:33:32;;;;;;;3.73;1.40;;;7.00;1.00;;;;;;5073256;28;20174;-77
2022/04/08 00:35:58;;;;;;;10.10;1.77;;;6.90;25.40;;;;;;5073356;28;20175;-77
2022/04/08 00:38:24;;;;;;;4.50;1.30;;;6.90;51.40;;;;;;5073169;28;20202;-77
2022/04/08 00:40:50;;;;;;;3.70;1.30;;;6.90;94.10;;;;;;5073396;28;20175;-76
2022/04/08 00:43:18;;;;;;;6.63;1.50;;;6.90;44.40;;;;;;5072727;28;20272;-77
2022/04/08 00:45:44;;;;;;;10.40;1.63;;;6.90;85.30;;;;;;5073248;28;20180;-76
2022/04/08 00:48:10;;;;;;;7.73;1.77;;;6.90;99.90;;;;;;5073371;28;20565;-77
2022/04/08 00:50:38;;;;;;;7.57;1.73;;;6.90;99.90;;;;;;5072327;28;20209;-77
2022/04/08 00:53:05;;;;;;;6.53;1.80;;;6.80;99.90;;;;;;5071768;28;20190;-77
2022/04/08 00:55:31;;;;;;;4.73;1.87;;;6.90;99.90;;;;;;5071705;28;20224;-76
2022/04/08 00:58:02;;;;;;;10.50;1.93;;;6.80;99.90;;;;;;5071589;28;20210;-77
2022/04/08 01:00:32;;;;;;;7.10;1.60;;;6.80;99.90;;;;;;5071223;28;20179;-76
2022/04/08 01:02:57;;;;;;;5.17;1.67;;;6.80;99.90;;;;;;5072853;28;20206;-76
2022/04/08 01:05:24;;;;;;;6.20;1.70;;;6.80;99.90;;;;;;5073127;28;20175;-76
2022/04/08 01:07:50;;;;;;;8.37;1.97;;;6.70;99.90;;;;;;5072910;28;20262;-76
2022/04/08 01:10:15;;;;;;;9.27;2.03;;;6.70;99.90;;;;;;5071495;28;20244;-76
2022/04/08 01:12:41;;;;;;;12.70;2.63;;;6.70;99.90;;;;;;5072947;28;20207;-77
2022/04/08 01:15:09;;;;;;;9.80;2.30;;;6.60;99.90;;;;;;5071566;28;20210;-76
2022/04/08 01:17:35;;;;;;;11.73;2.40;;;6.70;99.90;;;;;;5072158;28;20182;-76
2022/04/08 01:20:01;;;;;;;14.93;3.00;;;6.70;99.90;;;;;;5072942;28;20274;-76
2022/04/08 01:22:28;;;;;;;10.23;2.60;;;6.70;99.90;;;;;;5071994;28;20289;-76
2022/04/08 01:25:01;;;;;;;9.57;2.00;;;6.70;99.90;;;;;;5072588;28;20176;-76
2022/04/08 01:27:28;;;;;;;9.03;2.40;;;6.70;99.90;;;;;;5072797;28;20175;-76
2022/04/08 01:29:54;;;;;;;9.20;2.83;;;6.70;99.90;;;;;;5054622;28;20233;-76
2022/04/08 01:32:20;;;;;;;16.97;3.10;;;6.70;99.90;;;;;;5072502;28;20199;-76
2022/04/08 01:34:45;;;;;;;10.83;2.30;;;6.70;99.90;;;;;;5072571;28;20661;-76
2022/04/08 01:37:11;;;;;;;15.47;2.60;;;6.70;99.90;;;;;;5072252;28;20189;-76
2022/04/08 01:39:41;;;;;;;8.73;2.37;;;6.70;99.90;;;;;;5054498;28;20246;-76
2022/04/08 01:42:07;;;;;;;9.50;2.53;;;6.70;99.90;;;;;;5072455;28;20252;-76
2022/04/08 01:44:34;;;;;;;9.20;2.13;;;6.70;99.90;;;;;;5072538;28;20188;-76
2022/04/08 01:46:59;;;;;;;10.80;2.90;;;6.70;99.90;;;;;;5072458;28;20554;-76
2022/04/08 01:49:25;;;;;;;7.93;2.43;;;6.70;99.90;;;;;;5054504;28;20190;-76
2022/04/08 01:51:50;;;;;;;10.80;2.90;;;6.60;99.90;;;;;;5072140;28;20203;-76
2022/04/08 01:54:16;;;;;;;10.63;2.73;;;6.60;99.90;;;;;;5072916;28;20272;-76
2022/04/08 01:56:41;;;;;;;11.03;2.30;;;6.60;99.90;;;;;;5072568;28;20187;-76
2022/04/08 01:59:07;;;;;;;11.60;2.80;;;6.60;99.90;;;;;;5072111;28;20214;-76
2022/04/08 02:01:32;;;;;;;6.70;1.90;;;6.50;99.90;;;;;;5073750;28;20272;-76
2022/04/08 02:03:58;;;;;;;12.40;2.60;;;6.50;99.90;;;;;;5076049;28;20182;-76
2022/04/08 02:06:23;;;;;;;10.37;2.50;;;6.50;99.90;;;;;;5075949;28;20183;-76
2022/04/08 02:08:50;;;;;;;9.50;2.87;;;6.50;99.90;;;;;;5075866;28;20209;-76
2022/04/08 02:11:15;;;;;;;8.20;2.10;;;6.50;99.90;;;;;;5057783;28;20713;-76
2022/04/08 02:13:41;;;;;;;9.63;2.40;;;6.50;99.90;;;;;;5075489;28;20203;-76
2022/04/08 02:16:07;;;;;;;8.73;2.47;;;6.40;99.90;;;;;;5057772;28;20650;-76
2022/04/08 02:18:32;;;;;;;12.00;2.33;;;6.40;99.90;;;;;;5075940;28;20674;-75
2022/04/08 02:20:58;;;;;;;13.27;2.60;;;6.40;99.90;;;;;;5075501;28;20767;-76
2022/04/08 02:23:24;;;;;;;7.87;1.90;;;6.40;99.90;;;;;;5076012;28;20258;-76
2022/04/08 02:25:50;;;;;;;10.93;2.20;;;6.40;99.90;;;;;;5075739;28;20179;-76
2022/04/08 02:28:15;;;;;;;15.07;2.67;;;6.40;99.90;;;;;;5075762;28;20215;-76
2022/04/08 02:30:41;;;;;;;10.83;2.67;;;6.30;99.90;;;;;;5067587;28;20300;-76
2022/04/08 02:33:06;;;;;;;15.67;3.03;;;6.30;99.90;;;;;;5055542;28;20215;-76
2022/04/08 02:35:32;;;;;;;16.80;2.97;;;6.30;99.90;;;;;;5037621;28;20188;-76
2022/04/08 02:37:57;;;;;;;10.07;1.83;;;6.30;99.90;;;;;;5055213;28;20214;-76
2022/04/08 02:40:23;;;;;;;7.00;1.80;;;6.30;99.90;;;;;;5055363;28;20237;-76
2022/04/08 02:42:49;;;;;;;10.73;1.90;;;6.30;99.90;;;;;;5037530;28;20257;-76
2022/04/08 02:45:14;;;;;;;7.73;2.23;;;6.30;99.90;;;;;;5037471;28;20711;-76
2022/04/08 02:47:44;;;;;;;9.50;1.93;;;6.20;99.90;;;;;;5055272;28;20190;-76
2022/04/08 02:50:11;;;;;;;10.60;2.23;;;6.20;99.90;;;;;;5037479;28;20187;-76
2022/04/08 02:52:36;;;;;;;14.23;2.10;;;6.20;99.90;;;;;;5037215;28;20227;-76
2022/04/08 02:55:03;;;;;;;11.30;2.60;;;6.20;99.90;;;;;;5037243;28;20222;-76
2022/04/08 02:57:29;;;;;;;9.20;2.03;;;6.20;99.90;;;;;;5037128;28;20241;-76
2022/04/08 02:59:54;;;;;;;7.83;1.87;;;6.20;99.90;;;;;;5065091;28;20669;-76
2022/04/08 03:02:20;;;;;;;11.33;2.63;;;6.10;99.90;;;;;;5055185;28;20793;-75
2022/04/08 03:04:45;;;;;;;15.17;2.33;;;6.10;99.90;;;;;;5037148;28;20195;-76
2022/04/08 03:07:11;;;;;;;8.80;2.13;;;6.10;99.90;;;;;;5054931;28;20184;-75
2022/04/08 03:09:37;;;;;;;10.77;2.13;;;6.10;99.90;;;;;;5055083;28;20553;-76
2022/04/08 03:12:04;;;;;;;12.13;3.13;;;6.10;99.90;;;;;;5054679;28;20578;-76
2022/04/08 03:14:31;;;;;;;9.30;2.43;;;6.10;99.90;;;;;;5053929;28;20183;-76
2022/04/08 03:16:56;;;;;;;10.13;2.67;;;6.20;99.90;;;;;;5054657;28;20171;-76
2022/04/08 03:19:22;;;;;;;8.63;2.00;;;6.10;99.90;;;;;;5054514;28;20642;-75
2022/04/08 03:21:47;;;;;;;11.40;3.47;;;6.10;99.90;;;;;;5035496;28;20233;-75
2022/04/08 03:24:13;;;;;;;13.00;2.60;;;6.10;99.90;;;;;;5054736;28;20627;-76
2022/04/08 03:26:39;;;;;;;8.67;1.77;;;6.00;99.90;;;;;;5054528;28;20176;-75
2022/04/08 03:29:04;;;;;;;8.63;1.60;;;6.00;99.90;;;;;;5036565;28;20241;-76
2022/04/08 03:31:30;;;;;;;5.57;1.77;;;5.90;99.90;;;;;;5054689;28;20207;-75
2022/04/08 03:33:55;;;;;;;9.10;2.10;;;5.80;99.90;;;;;;5054277;28;20531;-76
2022/04/08 03:36:22;;;;;;;7.37;2.40;;;5.80;99.90;;;;;;5054268;28;20202;-76
2022/04/08 03:38:47;;;;;;;10.30;2.47;;;5.80;99.90;;;;;;5036295;28;20214;-76
2022/04/08 03:41:13;;;;;;;12.80;5.03;;;5.80;99.90;;;;;;5054096;28;20204;-76
2022/04/08 03:43:38;;;;;;;16.50;5.53;;;5.80;99.90;;;;;;5036471;28;20206;-76
2022/04/08 03:46:04;;;;;;;16.53;3.63;;;5.80;99.90;;;;;;5054215;28;20179;-75
2022/04/08 03:48:30;;;;;;;11.47;3.27;;;5.80;99.90;;;;;;5054518;28;20199;-75
2022/04/08 03:50:55;;;;;;;7.80;2.47;;;5.80;99.90;;;;;;5053868;28;20298;-76
2022/04/08 03:53:21;;;;;;;8.93;2.67;;;5.80;99.90;;;;;;5054013;28;20211;-76
2022/04/08 03:55:47;;;;;;;14.57;2.70;;;5.80;99.90;;;;;;5036063;28;20565;-75
2022/04/08 03:58:13;;;;;;;12.17;2.30;;;5.80;99.90;;;;;;5035947;28;20212;-75
2022/04/08 04:00:39;;;;;;;13.40;2.90;;;5.80;99.90;;;;;;5054014;28;20259;-75
2022/04/08 04:03:05;;;;;;;10.27;2.70;;;5.70;99.90;;;;;;5054330;28;20245;-76
2022/04/08 04:05:34;;;;;;;9.60;2.47;;;5.80;99.90;;;;;;5053688;28;20657;-75
2022/04/08 04:08:00;;;;;;;9.30;2.33;;;5.70;99.90;;;;;;5053982;28;20180;-76
2022/04/08 04:10:26;;;;;;;11.23;2.43;;;5.70;99.90;;;;;;5053819;28;20259;-77
2022/04/08 04:12:52;;;;;;;10.50;2.97;;;5.70;99.90;;;;;;5053658;28;20306;-76
2022/04/08 04:15:18;;;;;;;10.70;3.07;;;5.70;99.90;;;;;;5035811;28;20282;-76
2022/04/08 04:17:44;;;;;;;11.40;2.67;;;5.80;99.90;;;;;;5053656;28;20301;-76
2022/04/08 04:20:09;;;;;;;11.07;2.60;;;5.80;99.90;;;;;;5053661;28;20215;-76
2022/04/08 04:22:35;;;;;;;11.40;2.27;;;5.80;99.90;;;;;;5069693;28;20241;-77
2022/04/08 04:25:00;;;;;;;11.80;2.50;;;5.70;99.90;;;;;;5054691;28;20178;-76
2022/04/08 04:27:26;;;;;;;11.20;3.17;;;5.70;99.90;;;;;;5073343;28;20175;-77
2022/04/08 04:29:52;;;;;;;7.63;2.23;;;5.80;99.90;;;;;;5073413;28;20251;-76
2022/04/08 04:32:19;;;;;;;13.43;3.13;;;5.70;99.90;;;;;;5055264;28;20217;-76
2022/04/08 04:34:45;;;;;;;7.90;2.83;;;5.80;99.90;;;;;;5055414;28;20191;-76
2022/04/08 04:37:11;;;;;;;10.77;2.50;;;5.70;99.90;;;;;;5055455;28;20193;-76
2022/04/08 04:39:37;;;;;;;12.37;2.40;;;5.70;99.90;;;;;;5055203;28;20305;-75
2022/04/08 04:42:03;;;;;;;6.57;2.40;;;5.70;99.90;;;;;;5073109;28;20568;-75
2022/04/08 04:44:29;;;;;;;8.87;2.33;;;5.60;99.90;;;;;;5056189;28;20217;-76
2022/04/08 04:46:55;;;;;;;15.47;3.67;;;5.60;99.90;;;;;;5072784;28;20214;-77
2022/04/08 04:49:22;;;;;;;8.27;2.50;;;5.70;99.90;;;;;;5055507;28;20190;-77
2022/04/08 04:51:49;;;;;;;11.13;2.87;;;5.70;99.90;;;;;;5073301;28;20194;-77
2022/04/08 04:54:14;;;;;;;9.60;2.50;;;5.70;99.90;;;;;;5055115;28;20289;-77
2022/04/08 04:56:40;;;;;;;8.10;2.67;;;5.70;99.90;;;;;;5054999;28;20290;-76
2022/04/08 04:59:05;;;;;;;8.23;3.10;;;5.70;99.90;;;;;;5073155;28;20206;-76
2022/04/08 05:01:31;;;;;;;8.47;3.07;;;5.70;99.90;;;;;;5073109;28;20692;-76
2022/04/08 05:03:56;;;;;;;9.93;3.30;;;5.70;99.90;;;;;;5055033;28;20183;-76
2022/04/08 05:06:22;;;;;;;10.03;3.10;;;5.60;99.90;;;;;;5073061;28;20183;-76
2022/04/08 05:08:47;;;;;;;9.90;2.73;;;5.60;99.90;;;;;;5054919;28;20194;-76
2022/04/08 05:11:15;;;;;;;6.00;3.13;;;5.60;99.90;;;;;;5073134;28;20195;-77
2022/04/08 05:13:41;;;;;;;6.07;3.10;;;5.60;99.90;;;;;;5072838;28;20182;-77
2022/04/08 05:16:06;;;;;;;8.80;3.33;;;5.60;99.90;;;;;;5073881;28;20191;-76
2022/04/08 05:18:33;;;;;;;7.80;3.10;;;5.60;99.90;;;;;;5054738;28;20207;-77
2022/04/08 05:20:58;;;;;;;7.87;3.40;;;5.50;99.90;;;;;;5072469;28;20303;-76
2022/04/08 05:23:28;;;;;;;8.00;3.23;;;5.50;99.90;;;;;;5055226;28;20206;-76
2022/04/08 05:25:54;;;;;;;8.80;3.00;;;5.50;99.90;;;;;;5073000;28;20185;-76
2022/04/08 05:28:20;;;;;;;8.13;3.03;;;5.50;99.90;;;;;;5054688;28;20191;-77
2022/04/08 05:30:46;;;;;;;7.40;3.50;;;5.50;99.90;;;;;;5072950;28;20517;-77
2022/04/08 05:33:12;;;;;;;9.40;3.67;;;5.50;99.90;;;;;;5054662;28;20194;-76
2022/04/08 05:35:37;;;;;;;7.07;3.23;;;5.50;99.90;;;;;;5054633;28;20694;-76
2022/04/08 05:38:03;;;;;;;7.83;4.00;;;5.50;99.90;;;;;;5065326;28;20216;-76
2022/04/08 05:40:29;;;;;;;13.53;4.53;;;5.40;99.90;;;;;;5038557;28;20187;-77
2022/04/08 05:42:54;;;;;;;9.80;4.47;;;5.50;99.90;;;;;;5038458;28;20285;-77
2022/04/08 05:45:23;;;;;;;7.97;3.63;;;5.50;99.90;;;;;;5056420;28;20206;-76
2022/04/08 05:47:54;;;;;;;7.93;4.40;;;5.50;99.90;;;;;;5038395;28;20267;-77
2022/04/08 05:50:20;;;;;;;7.87;4.17;;;5.50;99.90;;;;;;5057726;28;20572;-77
2022/04/08 05:52:51;;;;;;;13.80;4.87;;;5.50;99.90;;;;;;5056013;28;20580;-76
2022/04/08 05:55:17;;;;;;;10.20;4.47;;;5.50;99.90;;;;;;5056169;28;20156;-77
2022/04/08 05:57:43;;;;;;;9.90;4.40;;;5.50;99.90;;;;;;5055952;28;20742;-76
2022/04/08 06:00:11;;;;;;;12.13;4.33;;;5.50;99.90;;;;;;5037986;28;20186;-75
2022/04/08 06:02:37;;;;;;;11.03;5.27;;;5.50;99.90;;;;;;5054704;28;20261;-76
2022/04/08 06:05:03;;;;;;;12.10;4.93;;;5.50;99.90;;;;;;5056261;28;20596;-76
2022/04/08 06:07:29;;;;;;;10.50;4.43;;;5.50;99.90;;;;;;5056114;28;20191;-76
2022/04/08 06:09:56;;;;;;;14.37;6.40;;;5.50;99.90;;;;;;5037879;28;20195;-76
2022/04/08 06:12:22;;;;;;;10.37;4.90;;;5.60;99.90;;;;;;5055570;28;20202;-76
2022/04/08 06:14:47;;;;;;;9.47;5.10;;;5.60;99.90;;;;;;5037695;28;20271;-76
2022/04/08 06:17:14;;;;;;;10.53;4.93;;;5.60;99.90;;;;;;5037797;28;20184;-76
2022/04/08 06:19:39;;;;;;;8.53;4.70;;;5.70;99.90;;;;;;5055548;28;20260;-76
2022/04/08 06:22:05;;;;;;;12.10;5.20;;;5.70;99.90;;;;;;5055552;28;20211;-76
2022/04/08 06:24:30;;;;;;;11.77;5.93;;;5.70;99.90;;;;;;5056047;28;20171;-76
2022/04/08 06:26:56;;;;;;;14.27;6.40;;;5.70;99.90;;;;;;5055815;28;20175;-76
2022/04/08 06:29:21;;;;;;;9.37;5.70;;;5.70;99.90;;;;;;5055349;28;20214;-76
2022/04/08 06:31:47;;;;;;;15.50;6.43;;;5.70;99.90;;;;;;5055326;28;20215;-76
2022/04/08 06:34:13;;;;;;;11.10;6.87;;;5.80;99.90;;;;;;5055804;28;20202;-75
2022/04/08 06:36:38;;;;;;;11.00;7.00;;;5.80;99.90;;;;;;5055288;28;20254;-76
2022/04/08 06:39:04;;;;;;;13.63;7.43;;;5.90;99.90;;;;;;5055164;28;20222;-76
2022/04/08 06:41:29;;;;;;;16.10;7.23;;;6.00;99.90;;;;;;5055164;28;20195;-76
2022/04/08 06:43:56;;;;;;;19.17;7.30;;;6.00;99.90;;;;;;5037375;28;20187;-76
2022/04/08 06:46:22;;;;;;;14.20;7.53;;;6.10;99.90;;;;;;5053806;28;20190;-76
2022/04/08 06:48:48;;;;;;;13.40;7.30;;;6.20;99.90;;;;;;5054132;28;20188;-76
2022/04/08 06:51:13;;;;;;;8.93;6.67;;;6.20;99.90;;;;;;5036961;28;20647;-76
2022/04/08 06:53:39;;;;;;;12.57;6.53;;;6.30;99.90;;;;;;5037597;28;20187;-76
2022/04/08 06:56:04;;;;;;;11.93;6.83;;;6.40;99.90;;;;;;5037873;28;20238;-76
2022/04/08 06:58:31;;;;;;;11.57;7.27;;;6.40;99.90;;;;;;5055180;28;20674;-76
2022/04/08 07:00:57;;;;;;;13.00;6.73;;;6.50;99.90;;;;;;5036890;28;20234;-76
2022/04/08 07:03:23;;;;;;;8.13;6.87;;;6.60;99.90;;;;;;5037216;28;20188;-77
2022/04/08 07:05:48;;;;;;;16.90;7.87;;;6.50;99.90;;;;;;5054582;28;20183;-76
2022/04/08 07:08:14;;;;;;;12.97;7.53;;;6.60;99.90;;;;;;5054560;28;20604;-76
2022/04/08 07:10:40;;;;;;;12.30;7.07;;;6.70;99.90;;;;;;5054740;28;20285;-76
2022/04/08 07:13:07;;;;;;;11.93;6.60;;;6.70;99.90;;;;;;5036843;28;20191;-76
2022/04/08 07:15:33;;;;;;;16.10;7.47;;;6.80;99.90;;;;;;5036487;28;20245;-76
2022/04/08 07:17:59;;;;;;;9.03;6.73;;;6.80;99.90;;;;;;5036356;28;20211;-76
2022/04/08 07:20:24;;;;;;;11.67;7.30;;;6.90;99.90;;;;;;5036473;28;20180;-76
2022/04/08 07:22:51;;;;;;;11.43;7.40;;;6.90;99.90;;;;;;5051104;28;20220;-76
2022/04/08 07:25:18;;;;;;;12.10;7.77;;;7.00;99.90;;;;;;5069510;28;20691;-76
2022/04/08 07:27:45;;;;;;;16.80;7.60;;;7.00;99.90;;;;;;5069540;28;20233;-76
2022/04/08 07:30:12;;;;;;;11.37;6.87;;;7.10;99.90;;;;;;5069606;28;20191;-76
2022/04/08 07:32:38;;;;;;;10.43;7.40;;;7.00;4.30;;;;;;5069481;28;20290;-76
2022/04/08 07:35:04;;;;;;;13.70;7.17;;;7.00;98.10;;;;;;5069446;28;20219;-76
2022/04/08 07:37:31;;;;;;;11.27;7.30;;;7.00;1.00;;;;;;5069387;28;20268;-76
2022/04/08 07:39:57;;;;;;;10.80;7.57;;;7.00;1.00;;;;;;5069319;28;20215;-76
2022/04/08 07:42:23;;;;;;;10.23;6.90;;;7.10;1.00;;;;;;5069490;28;20223;-76
2022/04/08 07:44:49;;;;;;;9.23;6.17;;;7.10;1.00;;;;;;5069298;28;20230;-76
2022/04/08 07:47:15;;;;;;;8.90;6.17;;;7.20;1.00;;;;;;5069270;28;20672;-76
2022/04/08 07:49:42;;;;;;;10.60;5.77;;;7.20;1.00;;;;;;5069213;28;20236;-76
2022/04/08 07:52:07;;;;;;;9.33;5.60;;;7.20;99.90;;;;;;5069118;28;20208;-77
2022/04/08 07:54:33;;;;;;;6.77;4.60;;;7.30;99.90;;;;;;5069146;28;20192;-77
2022/04/08 07:56:59;;;;;;;11.37;4.73;;;7.30;52.20;;;;;;5069068;28;20191;-77
2022/04/08 07:59:25;;;;;;;7.67;5.17;;;7.30;1.00;;;;;;5068746;28;20210;-76
2022/04/08 08:01:50;;;;;;;8.93;5.00;;;7.30;1.00;;;;;;5053536;28;20195;-76
2022/04/08 08:04:16;;;;;;;9.57;4.93;;;7.30;1.00;;;;;;5068916;28;20210;-76
2022/04/08 08:06:42;;;;;;;6.53;4.10;;;7.30;1.00;;;;;;5068807;28;20175;-76
2022/04/08 08:09:07;;;;;;;8.30;3.50;;;7.30;99.90;;;;;;5068732;28;20190;-76
2022/04/08 08:11:33;;;;;;;6.77;3.70;;;7.40;99.90;;;;;;5068663;28;20574;-76
2022/04/08 08:13:58;;;;;;;5.10;3.37;;;7.40;99.90;;;;;;5068735;28;20218;-76
2022/04/08 08:16:24;;;;;;;7.70;3.47;;;7.30;1.00;;;;;;5068671;28;20635;-76
2022/04/08 08:18:50;;;;;;;5.80;3.90;;;7.30;91.20;;;;;;5068628;28;20211;-76
2022/04/08 08:21:16;;;;;;;11.37;3.87;;;7.40;99.90;;;;;;5068335;28;20222;-76
2022/04/08 08:23:41;;;;;;;7.13;3.37;;;7.50;1.00;;;;;;5068605;28;20186;-76
2022/04/08 08:26:07;;;;;;;11.27;3.27;;;7.50;99.90;;;;;;5068578;28;20536;-76
2022/04/08 08:28:33;;;;;;;9.97;3.20;;;7.40;13.40;;;;;;5068571;28;20606;-76
2022/04/08 08:30:58;;;;;;;6.13;3.00;;;7.50;1.00;;;;;;5068470;28;20678;-76
2022/04/08 08:33:24;;;;;;;8.17;3.03;;;7.60;99.90;;;;;;5068562;28;20190;-76
2022/04/08 08:35:49;;;;;;;6.70;3.00;;;7.60;1.00;;;;;;5068550;28;20179;-76
2022/04/08 08:38:15;;;;;;;5.70;3.10;;;7.70;1.00;;;;;;5068358;28;20288;-77
2022/04/08 08:40:44;;;;;;;6.90;3.57;;;7.70;1.00;;;;;;5068402;28;20659;-76
2022/04/08 08:43:17;;;;;;;6.17;2.80;;;7.70;15.10;;;;;;5068354;28;20187;-76
2022/04/08 08:45:48;;;;;;;6.80;2.80;;;7.80;1.00;;;;;;5068440;28;20249;-76
2022/04/08 08:48:15;;;;;;;10.10;3.17;;;7.80;99.90;;;;;;5068339;28;20172;-76
2022/04/08 08:50:48;;;;;;;6.57;2.97;;;7.80;1.00;;;;;;5068283;28;20192;-76
2022/04/08 08:53:18;;;;;;;10.40;2.70;;;7.80;1.00;;;;;;5068382;28;20188;-76
2022/04/08 08:55:50;;;;;;;5.20;2.67;;;7.80;99.90;;;;;;5068948;28;20257;-76
2022/04/08 08:58:16;;;;;;;7.67;3.07;;;7.80;1.00;;;;;;5068147;28;20223;-76
2022/04/08 09:00:43;;;;;;;11.27;3.50;;;7.80;1.00;;;;;;5068189;28;20184;-76
2022/04/08 09:03:09;;;;;;;5.97;2.80;;;7.80;99.90;;;;;;5052739;28;20180;-76
2022/04/08 09:05:46;;;;;;;10.20;3.00;;;7.90;1.00;;;;;;5068308;28;20551;-78
2022/04/08 09:08:13;;;;;;;8.70;2.87;;;8.00;99.90;;;;;;5067633;28;20177;-77
2022/04/08 09:10:43;;;;;;;5.67;2.53;;;8.10;1.00;;;;;;5067799;28;20275;-76
2022/04/08 09:13:10;;;;;;;6.60;2.47;;;8.00;1.00;;;;;;5072249;28;20186;-76
2022/04/08 09:15:39;;;;;;;4.57;2.20;;;8.10;99.90;;;;;;5072176;28;20720;-76
2022/04/08 09:18:14;;;;;;;6.33;2.90;;;8.00;1.00;;;;;;5072110;28;20211;-77
2022/04/08 09:20:51;;;;;;;9.40;2.53;;;8.00;99.90;;;;;;5071861;28;20179;-77
2022/04/08 09:23:18;;;;;;;7.77;2.40;;;7.90;99.90;;;;;;5038798;28;20178;-77
2022/04/08 09:25:44;;;;;;;4.83;2.37;;;8.20;1.00;;;;;;5038587;28;20190;-76
2022/04/08 09:28:12;;;;;;;6.77;2.30;;;8.20;1.00;;;;;;5038716;28;20235;-77
2022/04/08 09:30:39;;;;;;;7.53;2.40;;;8.20;1.00;;;;;;5038425;28;20187;-76
2022/04/08 09:33:19;;;;;;;7.93;2.60;;;8.30;50.60;;;;;;5056607;28;20182;-77
2022/04/08 09:35:45;;;;;;;7.57;2.70;;;8.20;99.90;;;;;;5038480;28;20189;-77
2022/04/08 09:38:11;;;;;;;9.80;2.53;;;8.30;99.90;;;;;;5038164;28;20209;-77
2022/04/08 09:40:42;;;;;;;2.33;1.83;;;8.40;99.90;;;;;;5038167;28;20554;-76
2022/04/08 09:43:08;;;;;;;4.73;2.17;;;8.50;1.00;;;;;;5038264;28;20352;-76
2022/04/08 09:45:34;;;;;;;5.13;1.80;;;8.50;1.00;;;;;;5038136;28;20551;-76
2022/04/08 09:48:02;;;;;;;3.53;2.03;;;8.50;1.00;;;;;;5038080;28;20182;-76
2022/04/08 09:50:28;;;;;;;3.97;2.10;;;8.60;99.90;;;;;;5038029;28;20681;-76
2022/04/08 09:52:54;;;;;;;4.67;2.07;;;8.60;99.90;;;;;;5056376;28;20199;-77
2022/04/08 09:55:22;;;;;;;8.10;2.13;;;8.60;99.90;;;;;;5038061;28;20182;-77
2022/04/08 09:57:50;;;;;;;4.13;2.00;;;8.60;1.00;;;;;;5037837;28;20266;-76
2022/04/08 10:00:16;;;;;;;5.40;2.03;;;8.70;99.90;;;;;;5054767;28;20186;-77
2022/04/08 10:02:48;;;;;;;5.23;2.03;;;8.60;1.00;;;;;;5038482;28;20249;-77
2022/04/08 10:05:13;;;;;;;5.03;2.13;;;8.70;99.90;;;;;;5038304;28;20182;-77
2022/04/08 10:07:41;;;;;;;5.47;3.00;;;8.70;99.90;;;;;;5038153;28;20649;-77
2022/04/08 10:10:20;;;;;;;5.90;2.67;;;8.80;1.00;;;;;;5038304;28;20287;-77
2022/04/08 10:13:07;;;;;;;4.00;2.17;;;8.70;99.90;;;;;;5038005;28;20217;-76
2022/04/08 10:15:40;;;;;;;5.53;2.40;;;8.70;99.90;;;;;;5056193;28;20179;-77
2022/04/08 10:18:06;;;;;;;5.07;2.30;;;8.70;99.90;;;;;;5037757;28;20804;-77
2022/04/08 10:20:35;;;;;;;6.97;2.23;;;8.60;1.00;;;;;;5037735;28;20215;-76
2022/04/08 10:23:08;;;;;;;5.27;2.47;;;8.70;99.90;;;;;;5053590;28;20238;-76
2022/04/08 10:25:37;;;;;;;4.00;2.33;;;8.50;1.00;;;;;;5070957;28;20180;-76
2022/04/08 10:28:03;;;;;;;6.77;2.90;;;8.60;99.90;;;;;;5070877;28;20179;-77
2022/04/08 10:30:32;;;;;;;3.20;2.33;;;8.50;1.00;;;;;;5055592;28;20753;-77
2022/04/08 10:33:07;;;;;;;5.37;2.60;;;8.50;1.00;;;;;;5070743;28;20218;-76
2022/04/08 10:35:32;;;;;;;4.63;2.33;;;8.40;99.90;;;;;;5070630;28;20187;-77
2022/04/08 10:38:07;;;;;;;4.03;3.13;;;8.50;1.00;;;;;;5070643;28;20191;-77
2022/04/08 10:40:38;;;;;;;7.87;3.50;;;8.60;99.90;;;;;;5070690;28;20185;-77
2022/04/08 10:43:08;;;;;;;8.10;3.30;;;8.60;1.00;;;;;;5070698;28;20180;-77
2022/04/08 10:45:35;;;;;;;7.77;3.27;;;8.60;99.90;;;;;;5072823;28;20184;-77
2022/04/08 10:48:13;;;;;;;6.33;3.50;;;8.60;99.90;;;;;;5072471;28;20182;-77
2022/04/08 10:50:39;;;;;;;4.47;3.23;;;8.70;1.00;;;;;;5070663;28;20655;-77
2022/04/08 10:53:13;;;;;;;3.57;2.90;;;8.70;1.00;;;;;;5070422;28;20183;-76
2022/04/08 10:55:54;;;;;;;5.23;3.00;;;8.80;1.00;;;;;;5070443;28;20186;-76
2022/04/08 10:58:31;;;;;;;4.27;2.17;;;8.70;1.00;;;;;;5070298;28;20231;-77
2022/04/08 11:00:57;;;;;;;5.23;2.20;;;8.70;7.40;;;;;;5070164;28;20217;-76
2022/04/08 11:03:29;;;;;;;4.27;1.97;;;8.70;1.00;;;;;;5070170;28;20183;-77
2022/04/08 11:05:55;;;;;;;2.63;1.53;;;8.70;1.00;;;;;;5070246;28;20277;-77
2022/04/08 11:08:25;;;;;;;6.13;1.87;;;8.60;99.90;;;;;;5070057;28;20547;-76
2022/04/08 11:10:58;;;;;;;7.83;1.90;;;8.50;88.30;;;;;;5070019;28;20183;-77
2022/04/08 11:13:24;;;;;;;6.87;2.00;;;8.50;1.00;;;;;;5069954;28;20188;-77
2022/04/08 11:15:50;;;;;;;2.23;1.80;;;8.50;1.00;;;;;;5070043;28;20190;-76
2022/04/08 11:18:15;;;;;;;4.07;1.70;;;8.70;60.00;;;;;;5069947;28;20208;-77
2022/04/08 11:20:48;;;;;;;6.90;1.53;;;8.80;99.90;;;;;;5069716;28;20190;-77
2022/04/08 11:23:14;;;;;;;4.83;1.70;;;8.70;1.00;;;;;;5036555;28;20188;-76
2022/04/08 11:25:39;;;;;;;5.03;2.00;;;8.80;1.00;;;;;;5036526;28;20666;-77
2022/04/08 11:28:07;;;;;;;5.00;1.90;;;8.70;1.00;;;;;;5036433;28;20681;-77
2022/04/08 11:30:40;;;;;;;5.13;1.67;;;8.70;1.00;;;;;;5036657;28;20207;-76
2022/04/08 11:33:13;;;;;;;6.07;1.90;;;8.80;1.00;;;;;;5036787;28;20188;-79
2022/04/08 11:35:39;;;;;;;3.43;1.80;;;8.80;99.90;;;;;;5053817;28;20210;-77
2022/04/08 11:38:15;;;;;;;2.63;1.27;;;8.80;1.00;;;;;;5036924;28;20187;-77
2022/04/08 11:40:41;;;;;;;4.27;1.60;;;8.90;1.00;;;;;;5055426;28;20179;-77
2022/04/08 11:43:08;;;;;;;6.50;1.80;;;8.80;99.90;;;;;;5054377;28;20192;-77
2022/04/08 11:45:34;;;;;;;2.87;1.40;;;8.80;99.90;;;;;;5052793;28;20542;-77
2022/04/08 11:48:00;;;;;;;6.17;1.87;;;8.80;99.90;;;;;;5053942;28;20200;-76
2022/04/08 11:50:27;;;;;;;1.77;1.43;;;8.80;99.90;;;;;;5091408;22;20241;-77
2022/04/08 11:52:57;;;;;;;4.43;1.63;;;8.80;99.90;;;;;;5072676;28;20182;-78
2022/04/08 11:55:27;;;;;;;5.90;1.70;;;8.70;1.00;;;;;;5056170;28;20250;-79
2022/04/08 11:57:55;;;;;;;5.07;1.77;;;8.70;1.00;;;;;;5074940;28;20256;-77
2022/04/08 12:00:25;;;;;;;9.87;1.80;;;8.60;1.00;;;;;;5074395;28;20218;-76
2022/04/08 12:02:51;;;;;;;4.47;1.63;;;8.60;1.00;;;;;;5074125;28;20171;-78
2022/04/08 12:05:24;;;;;;;4.80;2.20;;;8.50;1.00;;;;;;5074745;28;20669;-76
2022/04/08 12:07:52;;;;;;;4.00;1.43;;;8.60;1.00;;;;;;5056003;28;20183;-77
2022/04/08 12:10:20;;;;;;;3.50;1.90;;;8.80;99.90;;;;;;5055973;28;20202;-77
2022/04/08 12:12:46;;;;;;;3.53;1.83;;;8.80;1.00;;;;;;5055960;28;20229;-77
2022/04/08 12:15:11;;;;;;;4.30;1.90;;;8.90;99.90;;;;;;5073792;28;20236;-77
2022/04/08 12:17:41;;;;;;;2.87;1.90;;;8.90;99.90;;;;;;5055624;28;20213;-76
2022/04/08 12:20:14;;;;;;;6.33;2.30;;;8.90;1.00;;;;;;5055373;28;20211;-76
2022/04/08 12:22:40;;;;;;;2.17;1.77;;;9.00;1.00;;;;;;5074552;28;20673;-76
2022/04/08 12:25:08;;;;;;;5.43;2.10;;;8.80;1.00;;;;;;5074801;28;20167;-76
2022/04/08 12:27:34;;;;;;;3.53;1.97;;;8.90;1.00;;;;;;5078393;28;20182;-77
2022/04/08 12:30:00;;;;;;;2.73;1.70;;;8.90;1.00;;;;;;5084634;28;20264;-77
2022/04/08 12:32:34;;;;;;;3.70;1.80;;;8.90;1.00;;;;;;5085122;28;20171;-78
2022/04/08 12:34:59;;;;;;;4.27;2.10;;;9.00;93.90;;;;;;5059894;28;20175;-77
2022/04/08 12:37:25;;;;;;;3.57;2.00;;;9.00;1.00;;;;;;5076545;28;20194;-78
2022/04/08 12:39:50;;;;;;;2.50;1.70;;;9.10;3.00;;;;;;5076667;28;20222;-78
2022/04/08 12:42:16;;;;;;;6.00;1.90;;;9.10;99.90;;;;;;5076982;28;20182;-78
2022/04/08 12:44:41;;;;;;;4.00;2.10;;;9.20;1.00;;;;;;5057648;28;20598;-78
2022/04/08 12:47:07;;;;;;;2.10;1.63;;;9.20;47.60;;;;;;5076025;28;20174;-78
2022/04/08 12:49:32;;;;;;;2.60;1.77;;;9.20;1.00;;;;;;5077326;28;20719;-77
2022/04/08 12:51:58;;;;;;;4.20;1.83;;;9.10;1.00;;;;;;5077881;28;20222;-78
2022/04/08 12:54:24;;;;;;;4.43;1.70;;;9.20;1.00;;;;;;5075721;28;20235;-78